Time;durP1;ratioP1;P1;durP2;ratioP2;P2;SDS_P1;SDS_P2;PMS_P1;PMS_P2;Temp;Humidity;BMP_temperature;BMP_pressure;BME280_temperature;BME280_humidity;BME280_pressure;Samples;Min_cycle;Max_cycle;Signal;HPM_P1;HPM_P2
2022/10/17 00:01:07;;;;;;;7.70;6.90;;;;;;;;;;5069542;28;20397;-79
2022/10/17 00:03:35;;;;;;;6.60;6.13;;;;;;;;;;5067535;28;20486;-79
2022/10/17 00:06:04;;;;;;;6.90;6.23;;;;;;;;;;5069107;28;20810;-78
2022/10/17 00:08:30;;;;;;;5.57;5.27;;;;;;;;;;5066877;28;20440;-78
2022/10/17 00:11:07;;;;;;;5.93;5.63;;;;;;;;;;5068877;28;20448;-78
2022/10/17 00:13:34;;;;;;;6.53;5.90;;;;;;;;;;5067023;28;20537;-78
2022/10/17 00:16:00;;;;;;;7.37;6.43;;;;;;;;;;5068824;28;20412;-78
2022/10/17 00:18:26;;;;;;;7.00;6.30;;;;;;;;;;5066958;28;20472;-78
2022/10/17 00:20:52;;;;;;;6.60;6.17;;;;;;;;;;5068766;28;20462;-79
2022/10/17 00:23:18;;;;;;;6.83;6.40;;;;;;;;;;5066942;28;20847;-79
2022/10/17 00:25:44;;;;;;;6.37;6.07;;;;;;;;;;5068551;28;20499;-79
2022/10/17 00:28:12;;;;;;;11.30;6.90;;;;;;;;;;5099119;28;20548;-79
2022/10/17 00:30:38;;;;;;;7.23;6.73;;;;;;;;;;5068686;28;20553;-78
2022/10/17 00:33:04;;;;;;;7.53;6.90;;;;;;;;;;5066832;28;20445;-79
2022/10/17 00:35:30;;;;;;;7.50;7.00;;;;;;;;;;5068534;28;20404;-78
2022/10/17 00:37:56;;;;;;;8.90;8.07;;;;;;;;;;5066407;28;20555;-79
2022/10/17 00:40:23;;;;;;;7.90;7.10;;;;;;;;;;5068755;28;20546;-79
2022/10/17 00:42:51;;;;;;;7.47;6.97;;;;;;;;;;5098999;28;20416;-78
2022/10/17 00:45:17;;;;;;;8.10;7.60;;;;;;;;;;5066132;28;20454;-78
2022/10/17 00:47:46;;;;;;;8.50;7.80;;;;;;;;;;5066092;28;20825;-79
2022/10/17 00:50:13;;;;;;;8.90;8.13;;;;;;;;;;5068008;28;20473;-78
2022/10/17 00:52:39;;;;;;;8.93;8.33;;;;;;;;;;5065726;28;20456;-78
2022/10/17 00:55:14;;;;;;;7.93;7.33;;;;;;;;;;5068084;28;20497;-79
2022/10/17 00:57:40;;;;;;;8.07;7.47;;;;;;;;;;5066054;28;20408;-79
2022/10/17 01:00:09;;;;;;;11.30;8.40;;;;;;;;;;5068395;28;21061;-79
2022/10/17 01:02:35;;;;;;;9.03;7.80;;;;;;;;;;5066421;28;20393;-78
2022/10/17 01:05:01;;;;;;;7.97;7.23;;;;;;;;;;5067864;28;20464;-78
2022/10/17 01:07:28;;;;;;;7.80;7.50;;;;;;;;;;5067914;28;20409;-78
2022/10/17 01:09:54;;;;;;;7.50;6.87;;;;;;;;;;5065709;28;20973;-77
2022/10/17 01:12:20;;;;;;;9.70;6.90;;;;;;;;;;5068098;28;20459;-78
2022/10/17 01:14:49;;;;;;;7.27;6.40;;;;;;;;;;5065779;28;20445;-78
2022/10/17 01:17:38;;;;;;;6.97;6.40;;;;;;;;;;5067883;28;20495;-78
2022/10/17 01:20:20;;;;;;;6.30;6.00;;;;;;;;;;5044910;28;20434;-78
2022/10/17 01:22:58;;;;;;;5.60;5.30;;;;;;;;;;5046823;28;20429;-78
2022/10/17 01:25:24;;;;;;;6.17;5.87;;;;;;;;;;5100355;28;20470;-79
2022/10/17 01:27:53;;;;;;;6.17;5.67;;;;;;;;;;5065621;28;20412;-79
2022/10/17 01:30:37;;;;;;;6.77;6.27;;;;;;;;;;5068119;28;20449;-79
2022/10/17 01:33:36;;;;;;;7.77;7.17;;;;;;;;;;5066285;28;20433;-79
2022/10/17 01:36:15;;;;;;;8.37;7.67;;;;;;;;;;5044637;28;20480;-78
2022/10/17 01:38:52;;;;;;;7.00;6.70;;;;;;;;;;5065592;28;20440;-79
2022/10/17 01:41:29;;;;;;;8.77;6.40;;;;;;;;;;5067622;28;20403;-78
2022/10/17 01:43:59;;;;;;;7.10;6.57;;;;;;;;;;5065145;28;20973;-78
2022/10/17 01:46:31;;;;;;;6.47;6.07;;;;;;;;;;5062159;28;20911;-78
2022/10/17 01:48:59;;;;;;;6.80;6.30;;;;;;;;;;5064990;28;20443;-77
2022/10/17 01:51:39;;;;;;;5.53;5.33;;;;;;;;;;5067138;28;20460;-78
2022/10/17 01:54:18;;;;;;;5.77;5.40;;;;;;;;;;5065184;28;20494;-80
2022/10/17 01:56:45;;;;;;;6.30;6.00;;;;;;;;;;5066867;28;20501;-79
2022/10/17 01:59:20;;;;;;;5.90;5.47;;;;;;;;;;5097494;28;20796;-78
2022/10/17 02:01:47;;;;;;;5.60;5.40;;;;;;;;;;5066764;28;20515;-80
2022/10/17 02:04:15;;;;;;;6.23;5.77;;;;;;;;;;5064715;28;20441;-79
2022/10/17 02:06:41;;;;;;;6.00;5.63;;;;;;;;;;5066018;28;20523;-77
2022/10/17 02:09:36;;;;;;;6.23;5.73;;;;;;;;;;5065208;28;20800;-77
2022/10/17 02:12:11;;;;;;;5.60;5.13;;;;;;;;;;5057631;28;20476;-77
2022/10/17 02:14:37;;;;;;;6.17;5.67;;;;;;;;;;5065020;28;20890;-77
2022/10/17 02:17:06;;;;;;;5.40;5.10;;;;;;;;;;5066692;28;20412;-78
2022/10/17 02:19:58;;;;;;;5.97;5.67;;;;;;;;;;5064790;28;20763;-77
2022/10/17 02:22:35;;;;;;;14.63;6.37;;;;;;;;;;5066560;28;20405;-77
2022/10/17 02:25:04;;;;;;;6.43;5.83;;;;;;;;;;5064401;28;20444;-78
2022/10/17 02:27:45;;;;;;;6.40;6.00;;;;;;;;;;5066474;28;20416;-78
2022/10/17 02:30:13;;;;;;;5.40;5.20;;;;;;;;;;5064331;28;20449;-78
2022/10/17 02:32:43;;;;;;;9.90;5.93;;;;;;;;;;5098742;28;20555;-78
2022/10/17 02:35:11;;;;;;;8.13;6.77;;;;;;;;;;5064565;28;20433;-78
2022/10/17 02:37:37;;;;;;;7.60;6.80;;;;;;;;;;5066756;28;20899;-78
2022/10/17 02:40:04;;;;;;;6.37;5.90;;;;;;;;;;5064350;28;20432;-78
2022/10/17 02:42:31;;;;;;;6.03;5.80;;;;;;;;;;5066355;28;20401;-78
2022/10/17 02:45:00;;;;;;;6.77;6.17;;;;;;;;;;5063777;28;20512;-78
2022/10/17 02:47:32;;;;;;;6.50;5.97;;;;;;;;;;5066151;28;20397;-78
2022/10/17 02:49:58;;;;;;;6.70;6.40;;;;;;;;;;5063810;28;20896;-78
2022/10/17 02:52:29;;;;;;;6.50;6.10;;;;;;;;;;5065928;28;20557;-79
2022/10/17 02:55:02;;;;;;;7.23;6.70;;;;;;;;;;5063791;28;20452;-78
2022/10/17 02:57:30;;;;;;;6.53;6.13;;;;;;;;;;5098528;28;20416;-79
2022/10/17 02:59:57;;;;;;;6.37;5.97;;;;;;;;;;5063901;28;20509;-79
2022/10/17 03:02:24;;;;;;;5.60;5.40;;;;;;;;;;5066006;28;20497;-78
2022/10/17 03:04:50;;;;;;;5.50;5.20;;;;;;;;;;5064124;28;20441;-78
2022/10/17 03:07:16;;;;;;;5.50;5.30;;;;;;;;;;5065837;28;20412;-77
2022/10/17 03:09:42;;;;;;;6.33;5.80;;;;;;;;;;5064217;28;20448;-78
2022/10/17 03:12:08;;;;;;;5.90;5.60;;;;;;;;;;5065946;28;20456;-79
2022/10/17 03:14:34;;;;;;;7.30;6.70;;;;;;;;;;5063932;28;20452;-79
2022/10/17 03:17:00;;;;;;;5.53;5.23;;;;;;;;;;5065340;28;20898;-78
2022/10/17 03:19:26;;;;;;;5.27;5.00;;;;;;;;;;5063579;28;20444;-78
2022/10/17 03:21:52;;;;;;;5.57;5.27;;;;;;;;;;5065911;28;20401;-79
2022/10/17 03:24:18;;;;;;;6.30;6.00;;;;;;;;;;5063980;28;20420;-78
2022/10/17 03:26:44;;;;;;;5.83;4.93;;;;;;;;;;5065361;28;20459;-78
2022/10/17 03:29:10;;;;;;;5.70;5.40;;;;;;;;;;5063569;28;20999;-78
2022/10/17 03:31:36;;;;;;;5.50;5.20;;;;;;;;;;5065812;28;20502;-79
2022/10/17 03:34:02;;;;;;;5.40;5.10;;;;;;;;;;5063402;28;20502;-78
2022/10/17 03:36:28;;;;;;;5.10;4.90;;;;;;;;;;5065759;28;20409;-78
2022/10/17 03:38:54;;;;;;;5.77;5.30;;;;;;;;;;5063928;28;20433;-78
2022/10/17 03:41:20;;;;;;;5.63;5.17;;;;;;;;;;5066138;28;20409;-78
2022/10/17 03:43:46;;;;;;;5.13;4.83;;;;;;;;;;5063672;28;20523;-78
2022/10/17 03:46:12;;;;;;;6.73;5.50;;;;;;;;;;5063323;28;20410;-78
2022/10/17 03:48:38;;;;;;;4.87;4.70;;;;;;;;;;5063999;28;20440;-78
2022/10/17 03:51:06;;;;;;;5.60;5.30;;;;;;;;;;5065621;28;20499;-78
2022/10/17 03:53:32;;;;;;;5.33;5.03;;;;;;;;;;5063570;28;20464;-79
2022/10/17 03:56:09;;;;;;;5.17;5.07;;;;;;;;;;5065348;28;20401;-78
2022/10/17 03:58:35;;;;;;;5.27;4.97;;;;;;;;;;5064006;28;21075;-78
2022/10/17 04:01:08;;;;;;;5.70;5.40;;;;;;;;;;5064768;28;20444;-78
2022/10/17 04:03:34;;;;;;;6.60;6.10;;;;;;;;;;5058211;28;20450;-78
2022/10/17 04:06:00;;;;;;;6.43;5.97;;;;;;;;;;5045069;28;20405;-78
2022/10/17 04:08:27;;;;;;;4.60;4.40;;;;;;;;;;5043374;28;20409;-78
2022/10/17 04:10:57;;;;;;;5.03;4.73;;;;;;;;;;5045044;28;20444;-78
2022/10/17 04:13:23;;;;;;;5.83;5.13;;;;;;;;;;5043587;28;20394;-78
2022/10/17 04:15:59;;;;;;;10.13;5.77;;;;;;;;;;5045254;28;20876;-78
2022/10/17 04:18:26;;;;;;;4.67;4.37;;;;;;;;;;5043401;28;20766;-77
2022/10/17 04:20:52;;;;;;;5.70;5.40;;;;;;;;;;5045763;28;20405;-79
2022/10/17 04:23:18;;;;;;;5.60;5.20;;;;;;;;;;5043493;28;20974;-78
2022/10/17 04:25:44;;;;;;;4.90;4.60;;;;;;;;;;5044964;28;20484;-77
2022/10/17 04:28:10;;;;;;;4.93;4.73;;;;;;;;;;5045393;28;20398;-77
2022/10/17 04:30:36;;;;;;;4.80;4.50;;;;;;;;;;5047153;28;20936;-79
2022/10/17 04:33:02;;;;;;;5.43;5.13;;;;;;;;;;5048693;28;20413;-77
2022/10/17 04:35:28;;;;;;;5.30;5.07;;;;;;;;;;5059377;28;20448;-79
2022/10/17 04:37:54;;;;;;;4.97;4.70;;;;;;;;;;5067918;28;20475;-78
2022/10/17 04:40:21;;;;;;;5.40;5.00;;;;;;;;;;5050071;28;20429;-78
2022/10/17 04:42:47;;;;;;;5.10;4.80;;;;;;;;;;5048242;28;20420;-78
2022/10/17 04:45:13;;;;;;;5.80;5.33;;;;;;;;;;5044530;28;21002;-77
2022/10/17 04:47:39;;;;;;;5.37;4.97;;;;;;;;;;5052159;28;20405;-78
2022/10/17 04:50:06;;;;;;;4.80;4.60;;;;;;;;;;5052070;28;20457;-77
2022/10/17 04:52:32;;;;;;;5.50;5.20;;;;;;;;;;5048406;28;20480;-78
2022/10/17 04:54:58;;;;;;;5.00;4.70;;;;;;;;;;5064208;28;20441;-78
2022/10/17 04:57:24;;;;;;;5.33;5.03;;;;;;;;;;5068321;28;20397;-78
2022/10/17 04:59:50;;;;;;;6.10;5.50;;;;;;;;;;5054322;28;20444;-78
2022/10/17 05:02:16;;;;;;;5.40;4.87;;;;;;;;;;5062216;28;20504;-78
2022/10/17 05:04:42;;;;;;;5.77;5.57;;;;;;;;;;5053898;28;20445;-78
2022/10/17 05:07:08;;;;;;;5.87;5.57;;;;;;;;;;5047928;28;20414;-78
2022/10/17 05:09:34;;;;;;;5.60;5.30;;;;;;;;;;5045569;28;20452;-77
2022/10/17 05:12:00;;;;;;;5.07;4.87;;;;;;;;;;5045671;28;20963;-78
2022/10/17 05:14:26;;;;;;;4.80;4.50;;;;;;;;;;5045563;28;20441;-77
2022/10/17 05:16:52;;;;;;;5.50;5.30;;;;;;;;;;5047733;28;20437;-78
2022/10/17 05:19:18;;;;;;;5.83;5.30;;;;;;;;;;5045798;28;20618;-79
2022/10/17 05:21:44;;;;;;;4.93;4.53;;;;;;;;;;5047054;28;20413;-78
2022/10/17 05:24:11;;;;;;;5.13;4.90;;;;;;;;;;5043800;28;20450;-79
2022/10/17 05:26:37;;;;;;;7.20;6.60;;;;;;;;;;5047618;28;20500;-77
2022/10/17 05:29:04;;;;;;;5.13;4.93;;;;;;;;;;5044884;28;20530;-77
2022/10/17 05:31:30;;;;;;;5.60;5.20;;;;;;;;;;5046936;28;20466;-77
2022/10/17 05:33:59;;;;;;;5.27;5.00;;;;;;;;;;5044952;28;20491;-79
2022/10/17 05:36:25;;;;;;;7.03;6.43;;;;;;;;;;5047255;28;20725;-80
2022/10/17 05:38:51;;;;;;;5.20;5.00;;;;;;;;;;5045147;28;20472;-78
2022/10/17 05:41:18;;;;;;;5.33;5.13;;;;;;;;;;5046754;28;20429;-79
2022/10/17 05:43:44;;;;;;;6.63;6.23;;;;;;;;;;5044902;28;20409;-80
2022/10/17 05:46:10;;;;;;;6.30;5.80;;;;;;;;;;5046560;28;20414;-79
2022/10/17 05:48:36;;;;;;;6.00;5.60;;;;;;;;;;5044883;28;20402;-77
2022/10/17 05:51:06;;;;;;;5.90;5.50;;;;;;;;;;5044183;28;21022;-78
2022/10/17 05:53:33;;;;;;;5.20;5.00;;;;;;;;;;5048320;28;20442;-79
2022/10/17 05:56:00;;;;;;;6.27;5.87;;;;;;;;;;5052194;28;20417;-78
2022/10/17 05:58:26;;;;;;;5.60;5.17;;;;;;;;;;5045000;28;20406;-79
2022/10/17 06:00:57;;;;;;;7.00;6.40;;;;;;;;;;5062587;28;20456;-78
2022/10/17 06:03:23;;;;;;;5.63;5.43;;;;;;;;;;5098938;28;20417;-78
2022/10/17 06:05:49;;;;;;;6.50;6.10;;;;;;;;;;5064225;28;20957;-78
2022/10/17 06:08:15;;;;;;;5.80;5.50;;;;;;;;;;5066041;28;20408;-76
2022/10/17 06:10:41;;;;;;;6.13;5.80;;;;;;;;;;5064316;28;20439;-79
2022/10/17 06:13:07;;;;;;;7.63;6.93;;;;;;;;;;5098534;28;20413;-76
2022/10/17 06:15:33;;;;;;;8.03;5.97;;;;;;;;;;5064669;28;20433;-77
2022/10/17 06:17:59;;;;;;;6.50;6.20;;;;;;;;;;5065849;28;20412;-77
2022/10/17 06:20:25;;;;;;;5.87;5.63;;;;;;;;;;5064135;28;20433;-77
2022/10/17 06:22:51;;;;;;;6.17;5.57;;;;;;;;;;5065978;28;20405;-78
2022/10/17 06:25:17;;;;;;;5.30;5.00;;;;;;;;;;5063869;28;20807;-77
2022/10/17 06:27:43;;;;;;;5.23;4.80;;;;;;;;;;5065875;28;20507;-78
2022/10/17 06:30:10;;;;;;;6.03;5.37;;;;;;;;;;5063787;28;20493;-78
2022/10/17 06:32:36;;;;;;;5.70;5.33;;;;;;;;;;5065780;28;20487;-78
2022/10/17 06:35:02;;;;;;;4.60;4.30;;;;;;;;;;5063531;28;20449;-77
2022/10/17 06:37:31;;;;;;;4.40;4.20;;;;;;;;;;4713708;28;9999758;-78
2022/10/17 06:39:57;;;;;;;5.33;4.90;;;;;;;;;;5051160;28;20936;-78
2022/10/17 06:42:23;;;;;;;5.17;4.87;;;;;;;;;;5062529;28;20977;-77
2022/10/17 06:44:49;;;;;;;4.57;4.40;;;;;;;;;;5050068;28;20497;-79
2022/10/17 06:47:15;;;;;;;5.10;4.70;;;;;;;;;;5061367;28;20452;-78
2022/10/17 06:49:41;;;;;;;9.50;7.00;;;;;;;;;;5055110;28;20623;-79
2022/10/17 06:52:07;;;;;;;4.90;4.53;;;;;;;;;;5061781;28;20544;-78
2022/10/17 06:54:33;;;;;;;5.20;5.00;;;;;;;;;;5055314;28;21085;-78
2022/10/17 06:56:59;;;;;;;3.30;3.20;;;;;;;;;;5055024;28;20421;-79
2022/10/17 06:59:25;;;;;;;4.87;4.63;;;;;;;;;;5070427;28;20437;-79
2022/10/17 07:01:51;;;;;;;5.33;5.00;;;;;;;;;;5053040;28;20417;-79
2022/10/17 07:04:17;;;;;;;4.70;4.50;;;;;;;;;;5054142;28;20477;-78
2022/10/17 07:06:43;;;;;;;4.83;4.63;;;;;;;;;;5059487;28;20417;-78
2022/10/17 07:09:09;;;;;;;4.13;4.00;;;;;;;;;;5052183;28;20469;-77
2022/10/17 07:11:35;;;;;;;4.70;4.37;;;;;;;;;;5055541;28;20460;-78
2022/10/17 07:14:02;;;;;;;5.00;4.60;;;;;;;;;;5058424;28;20413;-79
2022/10/17 07:16:28;;;;;;;4.57;4.13;;;;;;;;;;5049146;28;20424;-79
2022/10/17 07:18:55;;;;;;;4.30;4.10;;;;;;;;;;5059291;28;20769;-79
2022/10/17 07:21:21;;;;;;;4.17;3.97;;;;;;;;;;5060985;28;20420;-77
2022/10/17 07:23:47;;;;;;;4.67;4.40;;;;;;;;;;5063098;28;20992;-78
2022/10/17 07:26:15;;;;;;;4.53;4.40;;;;;;;;;;5060498;28;21052;-79
2022/10/17 07:28:41;;;;;;;6.67;6.17;;;;;;;;;;5065288;28;20406;-78
2022/10/17 07:31:09;;;;;;;5.33;4.90;;;;;;;;;;5062923;28;20505;-79
2022/10/17 07:33:35;;;;;;;3.80;3.60;;;;;;;;;;5065296;28;20466;-78
2022/10/17 07:36:02;;;;;;;4.63;4.20;;;;;;;;;;5062429;28;20523;-78
2022/10/17 07:38:28;;;;;;;4.47;4.27;;;;;;;;;;5065024;28;20763;-79
2022/10/17 07:40:58;;;;;;;4.20;4.10;;;;;;;;;;5061985;28;20444;-78
2022/10/17 07:43:24;;;;;;;4.83;4.27;;;;;;;;;;5064752;28;20417;-79
2022/10/17 07:45:51;;;;;;;5.30;4.80;;;;;;;;;;5060486;28;20451;-78
2022/10/17 07:48:17;;;;;;;4.83;4.50;;;;;;;;;;5064823;28;20413;-78
2022/10/17 07:50:43;;;;;;;4.28;3.90;;;;;;;;;;5062515;28;20445;-77
2022/10/17 07:53:09;;;;;;;3.97;3.77;;;;;;;;;;5047666;28;20179;-77
2022/10/17 07:55:39;;;;;;;4.30;4.00;;;;;;;;;;5056849;28;20531;-78
2022/10/17 07:58:05;;;;;;;5.60;4.20;;;;;;;;;;5064382;28;20405;-77
2022/10/17 08:00:33;;;;;;;4.70;4.40;;;;;;;;;;5062282;28;20495;-77
2022/10/17 08:02:59;;;;;;;4.83;4.07;;;;;;;;;;5064676;28;20423;-79
2022/10/17 08:05:25;;;;;;;6.97;4.20;;;;;;;;;;5066565;28;20524;-78
2022/10/17 08:07:52;;;;;;;4.63;3.47;;;;;;;;;;5068969;28;20433;-78
2022/10/17 08:10:18;;;;;;;4.13;3.60;;;;;;;;;;5060184;28;20958;-77
2022/10/17 08:12:44;;;;;;;6.20;4.20;;;;;;;;;;5068570;28;20467;-78
2022/10/17 08:15:11;;;;;;;4.30;4.10;;;;;;;;;;5057519;28;20794;-78
2022/10/17 08:17:37;;;;;;;4.80;3.50;;;;;;;;;;5065747;28;20419;-79
2022/10/17 08:20:04;;;;;;;3.50;3.40;;;;;;;;;;5066526;28;20580;-78
2022/10/17 08:22:31;;;;;;;4.67;4.37;;;;;;;;;;5068124;28;20405;-79
2022/10/17 08:24:57;;;;;;;4.13;3.93;;;;;;;;;;5058683;28;20448;-79
2022/10/17 08:27:24;;;;;;;3.70;3.60;;;;;;;;;;5048125;28;20748;-77
2022/10/17 08:29:53;;;;;;;4.03;3.67;;;;;;;;;;5046308;28;20452;-77
2022/10/17 08:32:25;;;;;;;3.50;3.40;;;;;;;;;;5046530;28;20473;-78
2022/10/17 08:34:51;;;;;;;4.80;3.67;;;;;;;;;;5046337;28;20991;-78
2022/10/17 08:37:17;;;;;;;3.67;3.40;;;;;;;;;;5047831;28;20428;-78
2022/10/17 08:39:43;;;;;;;3.93;3.73;;;;;;;;;;5046109;28;20550;-79
2022/10/17 08:42:21;;;;;;;3.73;3.33;;;;;;;;;;5047744;28;20457;-79
2022/10/17 08:45:02;;;;;;;3.23;3.00;;;;;;;;;;5041449;28;20465;-79
2022/10/17 08:47:33;;;;;;;5.53;5.03;;;;;;;;;;5047664;28;20414;-77
2022/10/17 08:50:01;;;;;;;4.20;3.87;;;;;;;;;;4348645;28;10022574;-78
2022/10/17 08:52:30;;;;;;;5.03;3.87;;;;;;;;;;5064567;28;20453;-78
2022/10/17 08:54:56;;;;;;;4.10;3.70;;;;;;;;;;5060075;28;20953;-79
2022/10/17 08:57:22;;;;;;;3.07;2.97;;;;;;;;;;5049890;28;20557;-80
2022/10/17 08:59:53;;;;;;;5.77;5.53;;;;;;;;;;5057807;28;20448;-78
2022/10/17 09:02:37;;;;;;;4.03;3.43;;;;;;;;;;5045352;28;20477;-79
2022/10/17 09:05:06;;;;;;;7.63;3.10;;;;;;;;;;5077518;28;20538;-79
2022/10/17 09:07:40;;;;;;;3.00;2.80;;;;;;;;;;5087738;28;20393;-77
2022/10/17 09:10:27;;;;;;;3.07;3.07;;;;;;;;;;5062492;28;20448;-79
2022/10/17 09:12:56;;;;;;;3.40;3.40;;;;;;;;;;5040060;28;20472;-78
2022/10/17 09:15:22;;;;;;;3.40;3.30;;;;;;;;;;5045342;28;20473;-79
2022/10/17 09:18:00;;;;;;;2.90;2.77;;;;;;;;;;5047452;28;20432;-78
2022/10/17 09:20:29;;;;;;;5.97;3.03;;;;;;;;;;5046349;28;20452;-79
2022/10/17 09:23:04;;;;;;;3.73;3.50;;;;;;;;;;5066848;28;20473;-78
2022/10/17 09:25:34;;;;;;;3.17;3.07;;;;;;;;;;5065379;28;20527;-79
2022/10/17 09:28:09;;;;;;;3.50;3.30;;;;;;;;;;5080787;28;20427;-79
2022/10/17 09:30:54;;;;;;;4.77;3.73;;;;;;;;;;5071889;28;20510;-79
2022/10/17 09:33:22;;;;;;;3.50;3.30;;;;;;;;;;5067469;28;20413;-79
2022/10/17 09:35:49;;;;;;;3.37;3.27;;;;;;;;;;5065256;28;20995;-78
2022/10/17 09:38:19;;;;;;;3.83;3.73;;;;;;;;;;5063652;28;20914;-79
2022/10/17 09:40:48;;;;;;;4.13;3.77;;;;;;;;;;5091453;28;20731;-79
2022/10/17 09:43:14;;;;;;;6.20;5.20;;;;;;;;;;5065668;28;20409;-81
2022/10/17 09:45:58;;;;;;;5.23;4.97;;;;;;;;;;5047254;28;20967;-79
2022/10/17 09:48:24;;;;;;;3.67;3.67;;;;;;;;;;5066019;28;20401;-79
2022/10/17 09:50:51;;;;;;;4.50;4.30;;;;;;;;;;5052639;28;21056;-80
2022/10/17 09:53:23;;;;;;;4.23;4.10;;;;;;;;;;5078985;28;20459;-81
2022/10/17 09:55:54;;;;;;;4.30;4.03;;;;;;;;;;5062313;28;20501;-79
2022/10/17 09:58:21;;;;;;;3.60;3.50;;;;;;;;;;5065708;28;20413;-78
2022/10/17 10:00:50;;;;;;;3.87;3.77;;;;;;;;;;5052559;28;20533;-78
2022/10/17 10:03:18;;;;;;;4.80;4.60;;;;;;;;;;4710987;28;9999982;-80
2022/10/17 10:06:04;;;;;;;4.30;4.00;;;;;;;;;;5056297;28;20210;-79
2022/10/17 10:08:33;;;;;;;4.20;3.90;;;;;;;;;;5053561;28;20426;-78
2022/10/17 10:11:02;;;;;;;5.70;4.23;;;;;;;;;;5054400;28;20456;-79
2022/10/17 10:13:28;;;;;;;5.73;5.10;;;;;;;;;;5059889;28;20441;-78
2022/10/17 10:16:11;;;;;;;5.00;4.73;;;;;;;;;;5056499;28;20442;-77
2022/10/17 10:18:38;;;;;;;6.07;5.70;;;;;;;;;;5061096;28;20490;-80
2022/10/17 10:21:08;;;;;;;5.20;4.80;;;;;;;;;;5060058;28;20524;-79
2022/10/17 10:23:38;;;;;;;5.03;4.70;;;;;;;;;;5062904;28;20437;-78
2022/10/17 10:26:11;;;;;;;4.53;4.27;;;;;;;;;;5060632;28;20443;-78
2022/10/17 10:28:37;;;;;;;5.37;4.70;;;;;;;;;;5062671;28;20467;-80
2022/10/17 10:31:05;;;;;;;4.93;4.67;;;;;;;;;;5057644;28;20464;-78
2022/10/17 10:33:33;;;;;;;5.13;4.70;;;;;;;;;;5065126;28;20920;-79
2022/10/17 10:36:00;;;;;;;5.63;4.70;;;;;;;;;;5063717;28;20688;-79
2022/10/17 10:38:27;;;;;;;4.90;4.50;;;;;;;;;;5049561;28;20402;-78
2022/10/17 10:40:55;;;;;;;4.53;4.33;;;;;;;;;;5075700;28;20492;-79
2022/10/17 10:43:22;;;;;;;4.70;4.50;;;;;;;;;;5045868;28;20930;-79
2022/10/17 10:45:49;;;;;;;7.80;4.80;;;;;;;;;;5041875;28;20445;-81
2022/10/17 10:48:25;;;;;;;3.73;3.63;;;;;;;;;;5047090;28;20485;-81
2022/10/17 10:50:55;;;;;;;5.63;5.10;;;;;;;;;;5062920;28;20522;-78
2022/10/17 10:53:40;;;;;;;4.53;4.43;;;;;;;;;;5063450;28;20463;-78
2022/10/17 10:56:09;;;;;;;5.17;4.80;;;;;;;;;;5050450;28;20468;-79
2022/10/17 10:58:53;;;;;;;5.27;4.93;;;;;;;;;;5045504;28;20879;-78
2022/10/17 11:01:32;;;;;;;4.77;4.57;;;;;;;;;;5042268;28;20450;-79
2022/10/17 11:04:13;;;;;;;6.10;5.47;;;;;;;;;;5045192;28;20437;-81
2022/10/17 11:06:41;;;;;;;5.17;4.17;;;;;;;;;;5060123;28;20429;-80
2022/10/17 11:09:10;;;;;;;6.27;5.03;;;;;;;;;;5097634;28;20417;-78
2022/10/17 11:11:45;;;;;;;4.63;4.33;;;;;;;;;;5062964;28;20942;-79
2022/10/17 11:14:30;;;;;;;4.13;3.80;;;;;;;;;;5064797;28;20412;-78
2022/10/17 11:17:02;;;;;;;4.73;4.53;;;;;;;;;;5063005;28;20503;-78
2022/10/17 11:19:33;;;;;;;5.53;4.50;;;;;;;;;;5065113;28;20412;-80
2022/10/17 11:21:59;;;;;;;4.47;4.37;;;;;;;;;;5061846;28;20469;-79
2022/10/17 11:24:29;;;;;;;4.00;3.90;;;;;;;;;;5064726;28;20911;-78
2022/10/17 11:27:00;;;;;;;4.90;4.53;;;;;;;;;;5048321;28;20434;-80
2022/10/17 11:29:28;;;;;;;5.73;5.23;;;;;;;;;;5045042;28;20409;-79
2022/10/17 11:31:56;;;;;;;4.43;4.23;;;;;;;;;;5061573;28;21309;-79
2022/10/17 11:34:24;;;;;;;4.90;4.70;;;;;;;;;;5065176;28;20416;-76
2022/10/17 11:36:52;;;;;;;5.00;4.80;;;;;;;;;;5062693;28;20787;-79
2022/10/17 11:39:18;;;;;;;5.30;4.90;;;;;;;;;;5064958;28;20458;-78
2022/10/17 11:41:49;;;;;;;6.70;6.03;;;;;;;;;;5062961;28;20988;-78
2022/10/17 11:44:34;;;;;;;6.03;5.30;;;;;;;;;;5093223;28;20511;-78
2022/10/17 11:47:19;;;;;;;5.87;5.37;;;;;;;;;;5062699;28;20987;-79
2022/10/17 11:49:47;;;;;;;6.63;4.47;;;;;;;;;;5062499;28;20448;-76
2022/10/17 11:52:19;;;;;;;5.67;5.27;;;;;;;;;;5064640;28;20482;-79
2022/10/17 11:54:48;;;;;;;8.23;5.10;;;;;;;;;;5096450;28;20428;-78
2022/10/17 11:57:36;;;;;;;4.60;4.40;;;;;;;;;;4361612;28;10000749;-78
2022/10/17 12:00:22;;;;;;;5.37;5.07;;;;;;;;;;5057972;28;20239;-79
2022/10/17 12:03:00;;;;;;;4.90;4.60;;;;;;;;;;5054137;28;20942;-78
2022/10/17 12:05:45;;;;;;;5.43;5.10;;;;;;;;;;5058250;28;20468;-79
2022/10/17 12:08:25;;;;;;;8.40;4.97;;;;;;;;;;5055676;28;20942;-79
2022/10/17 12:11:06;;;;;;;5.90;5.07;;;;;;;;;;5057647;28;21017;-79
2022/10/17 12:13:32;;;;;;;8.33;4.87;;;;;;;;;;5059325;28;20433;-78
2022/10/17 12:16:16;;;;;;;5.20;4.97;;;;;;;;;;4708376;28;10000386;-78
2022/10/17 12:18:42;;;;;;;6.13;5.73;;;;;;;;;;5045356;28;20175;-79
2022/10/17 12:21:09;;;;;;;6.60;6.10;;;;;;;;;;5055717;28;21054;-78
2022/10/17 12:23:37;;;;;;;5.13;4.73;;;;;;;;;;5064271;28;20417;-78
2022/10/17 12:26:04;;;;;;;6.73;6.00;;;;;;;;;;5062838;28;20509;-77
2022/10/17 12:28:32;;;;;;;5.80;5.50;;;;;;;;;;5064747;28;20452;-77
2022/10/17 12:31:11;;;;;;;10.57;6.17;;;;;;;;;;5062573;28;20437;-80
2022/10/17 12:33:38;;;;;;;7.03;6.40;;;;;;;;;;5065086;28;20397;-81
2022/10/17 12:36:16;;;;;;;5.87;5.47;;;;;;;;;;5062808;28;20579;-80
2022/10/17 12:38:43;;;;;;;6.33;5.93;;;;;;;;;;5064665;28;20401;-79
2022/10/17 12:41:09;;;;;;;6.27;5.70;;;;;;;;;;5062747;28;20425;-78
2022/10/17 12:43:45;;;;;;;10.40;7.20;;;;;;;;;;5064986;28;20396;-78
2022/10/17 12:46:11;;;;;;;5.80;5.50;;;;;;;;;;5059367;28;20432;-78
2022/10/17 12:48:38;;;;;;;6.00;5.70;;;;;;;;;;5064274;28;20385;-78
2022/10/17 12:51:04;;;;;;;7.10;5.63;;;;;;;;;;5066051;28;20515;-76
2022/10/17 12:53:45;;;;;;;7.47;5.70;;;;;;;;;;5100924;28;20413;-78
2022/10/17 12:56:15;;;;;;;8.37;7.77;;;;;;;;;;5066227;28;20459;-78
2022/10/17 12:58:46;;;;;;;9.90;6.37;;;;;;;;;;5067834;28;20437;-78
2022/10/17 13:01:18;;;;;;;6.53;6.23;;;;;;;;;;5065649;28;20842;-78
2022/10/17 13:03:45;;;;;;;6.43;6.00;;;;;;;;;;5067507;28;20406;-77
2022/10/17 13:06:15;;;;;;;6.77;6.37;;;;;;;;;;5097601;28;20437;-78
2022/10/17 13:08:45;;;;;;;7.90;7.37;;;;;;;;;;5067218;28;20397;-77
2022/10/17 13:11:13;;;;;;;7.10;6.60;;;;;;;;;;5065043;28;20443;-78
2022/10/17 13:13:44;;;;;;;6.93;5.57;;;;;;;;;;5067375;28;20407;-77
2022/10/17 13:16:27;;;;;;;6.90;6.40;;;;;;;;;;5065446;28;20444;-80
2022/10/17 13:18:53;;;;;;;6.63;6.33;;;;;;;;;;5067532;28;20432;-78
2022/10/17 13:21:19;;;;;;;6.40;6.20;;;;;;;;;;5065107;28;20437;-76
2022/10/17 13:23:48;;;;;;;6.60;6.10;;;;;;;;;;5099840;28;20412;-78
2022/10/17 13:26:27;;;;;;;6.90;6.17;;;;;;;;;;5065177;28;20449;-77
2022/10/17 13:29:10;;;;;;;6.87;6.10;;;;;;;;;;5067100;28;20404;-78
2022/10/17 13:31:37;;;;;;;13.93;12.60;;;;;;;;;;5097729;28;20476;-78
2022/10/17 13:34:05;;;;;;;7.60;7.10;;;;;;;;;;5066834;28;20417;-76
2022/10/17 13:36:32;;;;;;;11.00;7.70;;;;;;;;;;5065120;28;20429;-77
2022/10/17 13:38:59;;;;;;;9.57;7.80;;;;;;;;;;5066910;28;20688;-78
2022/10/17 13:41:29;;;;;;;7.40;6.90;;;;;;;;;;5065238;28;20437;-78
2022/10/17 13:43:57;;;;;;;7.93;7.43;;;;;;;;;;5067311;28;20493;-78
2022/10/17 13:46:26;;;;;;;8.77;8.07;;;;;;;;;;5095808;28;20451;-77
2022/10/17 13:48:52;;;;;;;7.60;6.80;;;;;;;;;;5066927;28;20412;-78
2022/10/17 13:51:18;;;;;;;8.30;7.40;;;;;;;;;;5064689;28;20951;-78
2022/10/17 13:53:44;;;;;;;7.77;6.97;;;;;;;;;;5065825;28;20570;-77
2022/10/17 13:56:24;;;;;;;8.00;7.37;;;;;;;;;;5064088;28;20539;-79
2022/10/17 13:58:56;;;;;;;14.23;6.93;;;;;;;;;;5099371;28;20417;-78
2022/10/17 14:01:23;;;;;;;8.23;7.47;;;;;;;;;;5097046;28;20551;-78
2022/10/17 14:03:49;;;;;;;8.30;6.97;;;;;;;;;;5066710;28;20436;-78
2022/10/17 14:06:29;;;;;;;6.40;6.10;;;;;;;;;;5064384;28;20519;-78
2022/10/17 14:09:00;;;;;;;7.20;6.63;;;;;;;;;;5066172;28;20516;-79
2022/10/17 14:11:29;;;;;;;12.40;8.20;;;;;;;;;;5064276;28;20738;-78
2022/10/17 14:13:56;;;;;;;7.10;6.40;;;;;;;;;;5065754;28;20401;-79
2022/10/17 14:16:23;;;;;;;7.00;6.60;;;;;;;;;;5070167;28;20540;-78
2022/10/17 14:18:50;;;;;;;7.87;7.13;;;;;;;;;;5070356;28;20409;-75
2022/10/17 14:21:24;;;;;;;7.23;6.87;;;;;;;;;;5063546;28;20491;-78
2022/10/17 14:23:51;;;;;;;6.40;6.00;;;;;;;;;;5066188;28;20547;-77
2022/10/17 14:26:20;;;;;;;6.90;6.30;;;;;;;;;;5063468;28;20449;-77
2022/10/17 14:28:48;;;;;;;7.80;7.30;;;;;;;;;;5065862;28;20401;-76
2022/10/17 14:31:25;;;;;;;7.17;6.57;;;;;;;;;;5063478;28;20452;-76
2022/10/17 14:33:51;;;;;;;12.33;6.77;;;;;;;;;;5065831;28;20413;-76
2022/10/17 14:36:19;;;;;;;7.60;6.90;;;;;;;;;;5063708;28;20970;-80
2022/10/17 14:38:46;;;;;;;7.80;7.10;;;;;;;;;;5065774;28;20482;-79
2022/10/17 14:41:21;;;;;;;10.83;7.40;;;;;;;;;;5063455;28;20522;-78
2022/10/17 14:43:52;;;;;;;7.10;6.50;;;;;;;;;;5065871;28;20399;-78
2022/10/17 14:46:18;;;;;;;7.50;6.77;;;;;;;;;;5061599;28;20424;-78
2022/10/17 14:48:46;;;;;;;7.30;6.60;;;;;;;;;;5065639;28;20703;-77
2022/10/17 14:51:16;;;;;;;7.90;6.97;;;;;;;;;;5063451;28;20775;-78
2022/10/17 14:53:43;;;;;;;7.20;6.50;;;;;;;;;;5065311;28;20538;-78
2022/10/17 14:56:26;;;;;;;24.53;22.43;;;;;;;;;;5095683;28;21005;-77